Provincetown III — WDB8185 — position and weather

sailwx.info

Track history (hours):
 
Tides and Currents Weather Stations Pressure Air Temp Water Temp Dewpoint Dewpoint Depression Visibility Wind Speed Wind Dir Waves Ship Positions

Provincetown III

Owner: MYSTIC FERRY LEASING LLC, BOSTON, MA. More information available from US FCC via Universal Licensing System and Coast Guard Vessel Documentation Center.

Last reported at 2017-Mar-23 11:34 UTC. Time now 2017-Mar-23 12:32 UTC.
Position N 18°23' W 064°44'.

Length 30 m; draft 2 m.

Type: Passenger vessel. MMSI: 366954420.

Date/timePositionNaut miles runAvg speedWind from/ knotsBaromVisibWave heightAir tempDewpointWater temp
2017-Mar-23 11:34N 18°23' W 064°44'7 0.5
2017-Mar-22 21:21N 18°25' W 064°37'17 7.7
2017-Mar-22 19:10N 18°18' W 064°53'1423.6
2017-Mar-22 18:34N 18°23' W 064°39'8 4.0
2017-Mar-22 16:33N 18°21' W 064°47'2 1.0
2017-Mar-22 14:34N 18°20' W 064°49'1212.0
2017-Mar-22 13:33N 18°25' W 064°37'12 6.2
2017-Mar-22 11:34N 18°20' W 064°49'12 0.9
2017-Mar-21 21:26N 18°25' W 064°37'16 7.6
2017-Mar-21 19:16N 18°18' W 064°52'7 2.5
2017-Mar-21 16:33N 18°22' W 064°47'5 2.3
2017-Mar-21 14:33N 18°19' W 064°50'1412.7
2017-Mar-21 13:27N 18°25' W 064°37'13 7.0
2017-Mar-21 11:33N 18°19' W 064°49'13 0.9
2017-Mar-20 21:14N 18°25' W 064°37'1623.9
2017-Mar-20 20:33N 18°18' W 064°52'1 0.4
2017-Mar-20 19:18N 18°18' W 064°53'6 2.1
2017-Mar-20 16:33N 18°21' W 064°48'1 0.4
2017-Mar-20 14:33N 18°22' W 064°47'8 8.3
2017-Mar-20 13:33N 18°23' W 064°38'10 5.2
2017-Mar-20 11:33N 18°20' W 064°49'12 0.9
2017-Mar-19 21:30N 18°25' W 064°37'8 4.3
2017-Mar-19 19:33N 18°22' W 064°45'1 1.3
2017-Mar-19 18:33N 18°23' W 064°44'2 0.8
2017-Mar-19 16:33N 18°23' W 064°42'6 5.9
2017-Mar-19 15:33N 18°21' W 064°48'4 2.0
2017-Mar-19 13:33N 18°23' W 064°44'7 0.4
2017-Mar-18 21:20N 18°24' W 064°38'15 7.5
2017-Mar-18 19:18N 18°18' W 064°52'15 7.1
2017-Mar-18 17:12N 18°24' W 064°38'1522.4
2017-Mar-18 16:33N 18°18' W 064°52'6 3.2
2017-Mar-18 14:33N 18°22' W 064°47'9 8.8
2017-Mar-18 13:34N 18°24' W 064°38'13 6.3
2017-Mar-18 11:33N 18°19' W 064°50'13 0.9
2017-Mar-17 21:34N 18°24' W 064°37'15 6.9
2017-Mar-17 19:20N 18°18' W 064°52'7 2.6
2017-Mar-17 16:33N 18°22' W 064°46'1 0.3
2017-Mar-17 14:33N 18°22' W 064°46'9 8.3
2017-Mar-17 13:29N 18°25' W 064°37'13 6.9
2017-Mar-17 11:34N 18°19' W 064°49'13 0.9
2017-Mar-16 21:21N 18°25' W 064°37'16 7.5
2017-Mar-16 19:10N 18°18' W 064°52'1423.5
2017-Mar-16 18:33N 18°23' W 064°38'8 4.2
2017-Mar-16 16:34N 18°22' W 064°47'2 0.9
2017-Mar-16 14:33N 18°20' W 064°48'1211.7
2017-Mar-16 13:33N 18°24' W 064°37'12 6.0
2017-Mar-16 11:33N 18°20' W 064°49'11 0.8
2017-Mar-15 21:13N 18°24' W 064°37'1523.3
2017-Mar-15 20:33N 18°18' W 064°52'2 1.7
2017-Mar-15 19:18N 18°18' W 064°55'1823.7
2017-Mar-15 18:33N 18°24' W 064°37'12 5.9
2017-Mar-15 16:34N 18°20' W 064°49'4 2.2
2017-Mar-15 14:33N 18°23' W 064°45'7 6.3
2017-Mar-15 13:31N 18°24' W 064°38'10 5.2
2017-Mar-15 11:33N 18°21' W 064°48'11 0.8
2017-Mar-14 21:16N 18°25' W 064°37'1910.1
2017-Mar-14 19:22N 18°19' W 064°56'1923.2
2017-Mar-14 18:33N 18°24' W 064°37'0 0.3
2017-Mar-14 17:03N 18°25' W 064°37'1123.1
2017-Mar-14 16:33N 18°21' W 064°48'5 2.7
2017-Mar-14 14:33N 18°23' W 064°42'6 5.4
2017-Mar-14 13:28N 18°25' W 064°37'13 7.0
2017-Mar-14 11:33N 18°19' W 064°50'11 0.8
2017-Mar-13 21:33N 18°23' W 064°39'15 6.3
2017-Mar-13 19:12N 18°18' W 064°53'1523.8
2017-Mar-13 18:34N 18°24' W 064°38'2 1.6
2017-Mar-13 17:31N 18°25' W 064°37'1010.6
2017-Mar-13 16:33N 18°21' W 064°47'0 0.1
2017-Mar-13 14:34N 18°22' W 064°47'9 8.3
2017-Mar-13 13:29N 18°24' W 064°38'  
Track history (hours):
 
Tides and Currents Weather Stations Pressure Air Temp Water Temp Dewpoint Dewpoint Depression Visibility Wind Speed Wind Dir Waves Ship Positions

Provincetown III

Owner: MYSTIC FERRY LEASING LLC, BOSTON, MA. More information available from US FCC via Universal Licensing System and Coast Guard Vessel Documentation Center.

Last reported at 2017-Mar-23 11:34 UTC. Time now 2017-Mar-23 12:32 UTC.
Position N 18°23' W 064°44'.

Length 30 m; draft 2 m.

Type: Passenger vessel. MMSI: 366954420.

Date/timePositionNaut miles runAvg speedWind from/ knotsBaromVisibWave heightAir tempDewpointWater temp
2017-Mar-23 11:34N 18°23' W 064°44'7 0.5
2017-Mar-22 21:21N 18°25' W 064°37'17 7.7
2017-Mar-22 19:10N 18°18' W 064°53'1423.6
2017-Mar-22 18:34N 18°23' W 064°39'8 4.0
2017-Mar-22 16:33N 18°21' W 064°47'2 1.0
2017-Mar-22 14:34N 18°20' W 064°49'1212.0
2017-Mar-22 13:33N 18°25' W 064°37'12 6.2
2017-Mar-22 11:34N 18°20' W 064°49'12 0.9
2017-Mar-21 21:26N 18°25' W 064°37'16 7.6
2017-Mar-21 19:16N 18°18' W 064°52'7 2.5
2017-Mar-21 16:33N 18°22' W 064°47'5 2.3
2017-Mar-21 14:33N 18°19' W 064°50'1412.7
2017-Mar-21 13:27N 18°25' W 064°37'13 7.0
2017-Mar-21 11:33N 18°19' W 064°49'13 0.9
2017-Mar-20 21:14N 18°25' W 064°37'1623.9
2017-Mar-20 20:33N 18°18' W 064°52'1 0.4
2017-Mar-20 19:18N 18°18' W 064°53'6 2.1
2017-Mar-20 16:33N 18°21' W 064°48'1 0.4
2017-Mar-20 14:33N 18°22' W 064°47'8 8.3
2017-Mar-20 13:33N 18°23' W 064°38'10 5.2
2017-Mar-20 11:33N 18°20' W 064°49'12 0.9
2017-Mar-19 21:30N 18°25' W 064°37'8 4.3
2017-Mar-19 19:33N 18°22' W 064°45'1 1.3
2017-Mar-19 18:33N 18°23' W 064°44'2 0.8
2017-Mar-19 16:33N 18°23' W 064°42'6 5.9
2017-Mar-19 15:33N 18°21' W 064°48'4 2.0
2017-Mar-19 13:33N 18°23' W 064°44'7 0.4
2017-Mar-18 21:20N 18°24' W 064°38'15 7.5
2017-Mar-18 19:18N 18°18' W 064°52'15 7.1
2017-Mar-18 17:12N 18°24' W 064°38'1522.4
2017-Mar-18 16:33N 18°18' W 064°52'6 3.2
2017-Mar-18 14:33N 18°22' W 064°47'9 8.8
2017-Mar-18 13:34N 18°24' W 064°38'13 6.3
2017-Mar-18 11:33N 18°19' W 064°50'13 0.9
2017-Mar-17 21:34N 18°24' W 064°37'15 6.9
2017-Mar-17 19:20N 18°18' W 064°52'7 2.6
2017-Mar-17 16:33N 18°22' W 064°46'1 0.3
2017-Mar-17 14:33N 18°22' W 064°46'9 8.3
2017-Mar-17 13:29N 18°25' W 064°37'13 6.9
2017-Mar-17 11:34N 18°19' W 064°49'13 0.9
2017-Mar-16 21:21N 18°25' W 064°37'16 7.5
2017-Mar-16 19:10N 18°18' W 064°52'1423.5
2017-Mar-16 18:33N 18°23' W 064°38'8 4.2
2017-Mar-16 16:34N 18°22' W 064°47'2 0.9
2017-Mar-16 14:33N 18°20' W 064°48'1211.7
2017-Mar-16 13:33N 18°24' W 064°37'12 6.0
2017-Mar-16 11:33N 18°20' W 064°49'11 0.8
2017-Mar-15 21:13N 18°24' W 064°37'1523.3
2017-Mar-15 20:33N 18°18' W 064°52'2 1.7
2017-Mar-15 19:18N 18°18' W 064°55'1823.7
2017-Mar-15 18:33N 18°24' W 064°37'12 5.9
2017-Mar-15 16:34N 18°20' W 064°49'4 2.2
2017-Mar-15 14:33N 18°23' W 064°45'7 6.3
2017-Mar-15 13:31N 18°24' W 064°38'10 5.2
2017-Mar-15 11:33N 18°21' W 064°48'11 0.8
2017-Mar-14 21:16N 18°25' W 064°37'1910.1
2017-Mar-14 19:22N 18°19' W 064°56'1923.2
2017-Mar-14 18:33N 18°24' W 064°37'0 0.3
2017-Mar-14 17:03N 18°25' W 064°37'1123.1
2017-Mar-14 16:33N 18°21' W 064°48'5 2.7
2017-Mar-14 14:33N 18°23' W 064°42'6 5.4
2017-Mar-14 13:28N 18°25' W 064°37'13 7.0
2017-Mar-14 11:33N 18°19' W 064°50'11 0.8
2017-Mar-13 21:33N 18°23' W 064°39'15 6.3
2017-Mar-13 19:12N 18°18' W 064°53'1523.8
2017-Mar-13 18:34N 18°24' W 064°38'2 1.6
2017-Mar-13 17:31N 18°25' W 064°37'1010.6
2017-Mar-13 16:33N 18°21' W 064°47'0 0.1
2017-Mar-13 14:34N 18°22' W 064°47'9 8.3
2017-Mar-13 13:29N 18°24' W 064°38'  

Dump ship's entire track history